Time;durP1;ratioP1;P1;durP2;ratioP2;P2;SDS_P1;SDS_P2;PMS_P1;PMS_P2;Temp;Humidity;BMP_temperature;BMP_pressure;BME280_temperature;BME280_humidity;BME280_pressure;Samples;Min_cycle;Max_cycle;Signal;HPM_P1;HPM_P2
2022/12/02 00:00:48;;;;;;;120.72;26.90;;;9.80;91.00;;;;;;5108096;28;20020;-56
2022/12/02 00:03:17;;;;;;;125.68;27.55;;;9.80;91.00;;;;;;5075031;28;20034;-56
2022/12/02 00:05:42;;;;;;;117.35;27.63;;;9.80;91.10;;;;;;5091381;28;20046;-56
2022/12/02 00:08:23;;;;;;;116.03;28.50;;;9.80;91.10;;;;;;5108427;28;20024;-56
2022/12/02 00:10:50;;;;;;;88.60;24.98;;;9.80;91.10;;;;;;5108825;28;20023;-56
2022/12/02 00:13:22;;;;;;;118.28;25.05;;;9.70;91.10;;;;;;5107904;28;20023;-56
2022/12/02 00:15:55;;;;;;;99.75;25.23;;;9.70;91.10;;;;;;5126303;28;20020;-56
2022/12/02 00:18:21;;;;;;;86.07;25.17;;;9.80;91.10;;;;;;5091649;28;20016;-56
2022/12/02 00:20:46;;;;;;;80.90;23.02;;;9.70;91.10;;;;;;5107433;28;20038;-56
2022/12/02 00:23:12;;;;;;;96.30;24.83;;;9.70;91.10;;;;;;5126180;28;20066;-57
2022/12/02 00:25:37;;;;;;;88.70;23.60;;;9.70;91.10;;;;;;5125898;28;20031;-56
2022/12/02 00:28:03;;;;;;;89.18;23.88;;;9.70;91.00;;;;;;5107491;28;20043;-56
2022/12/02 00:30:29;;;;;;;91.35;24.10;;;9.70;91.00;;;;;;5090787;28;20027;-56
2022/12/02 00:32:54;;;;;;;77.97;22.58;;;9.70;91.10;;;;;;5107440;28;20031;-56
2022/12/02 00:35:21;;;;;;;76.93;22.50;;;9.70;91.10;;;;;;5090784;28;20053;-56
2022/12/02 00:37:47;;;;;;;85.35;24.58;;;9.70;91.10;;;;;;5107847;28;20084;-56
2022/12/02 00:40:13;;;;;;;98.03;24.98;;;9.70;91.10;;;;;;5107523;28;20023;-56
2022/12/02 00:42:38;;;;;;;95.53;23.88;;;9.70;91.10;;;;;;5090536;28;20031;-56
2022/12/02 00:47:49;;;;;;;84.17;23.53;;;9.60;91.20;;;;;;5125697;28;20034;-56
2022/12/02 00:50:14;;;;;;;94.57;22.85;;;9.60;91.20;;;;;;5107518;28;20020;-56
2022/12/02 00:52:40;;;;;;;91.63;22.70;;;9.60;91.20;;;;;;5125660;28;20034;-56
2022/12/02 00:55:06;;;;;;;68.80;21.75;;;9.60;91.20;;;;;;5090402;28;20024;-56
2022/12/02 00:57:32;;;;;;;66.13;22.80;;;9.60;91.20;;;;;;5090247;28;20051;-56
2022/12/02 00:59:57;;;;;;;77.88;21.63;;;9.60;91.20;;;;;;5107113;28;20084;-56
2022/12/02 01:02:23;;;;;;;87.20;22.15;;;9.50;91.20;;;;;;5107337;28;20039;-56
2022/12/02 01:04:48;;;;;;;69.53;20.65;;;9.60;91.20;;;;;;5107144;28;20028;-56
2022/12/02 01:07:14;;;;;;;75.07;22.30;;;9.60;91.30;;;;;;5090379;28;20058;-56
2022/12/02 01:09:40;;;;;;;65.00;21.20;;;9.50;91.30;;;;;;5107138;28;20031;-56
2022/12/02 01:12:05;;;;;;;79.90;22.17;;;9.50;91.30;;;;;;5090298;28;20038;-56
2022/12/02 01:14:31;;;;;;;71.40;21.13;;;9.60;91.30;;;;;;5125542;28;20035;-56
2022/12/02 01:16:57;;;;;;;64.10;20.58;;;9.60;91.20;;;;;;5107031;28;20024;-56
2022/12/02 01:19:22;;;;;;;67.78;20.13;;;9.50;91.20;;;;;;5107036;28;20139;-56
2022/12/02 01:21:48;;;;;;;58.13;20.15;;;9.50;91.20;;;;;;5125561;28;20050;-56
2022/12/02 01:24:13;;;;;;;66.13;19.35;;;9.50;91.20;;;;;;5125412;28;20020;-56
2022/12/02 01:26:39;;;;;;;64.65;20.42;;;9.50;91.20;;;;;;5125180;28;20034;-56
2022/12/02 01:29:04;;;;;;;62.67;20.05;;;9.50;91.20;;;;;;5107274;28;20034;-56
2022/12/02 01:31:30;;;;;;;57.25;21.33;;;9.40;91.20;;;;;;5073140;28;20618;-56
2022/12/02 01:33:55;;;;;;;69.85;20.05;;;9.40;91.30;;;;;;5089994;28;20477;-56
2022/12/02 01:36:21;;;;;;;66.85;21.27;;;9.40;91.30;;;;;;5125258;28;20050;-56
2022/12/02 01:38:46;;;;;;;57.90;20.65;;;9.40;91.30;;;;;;5125178;28;20031;-56
2022/12/02 01:41:12;;;;;;;59.35;20.95;;;9.40;91.40;;;;;;5125141;28;20039;-56
2022/12/02 01:43:37;;;;;;;59.45;19.52;;;9.40;91.40;;;;;;5106916;28;20027;-56
2022/12/02 01:46:03;;;;;;;60.30;20.55;;;9.40;91.40;;;;;;5106845;28;20468;-56
2022/12/02 01:48:29;;;;;;;57.90;19.88;;;9.40;91.40;;;;;;5110809;28;20100;-56
2022/12/02 01:50:54;;;;;;;63.30;20.02;;;9.40;91.40;;;;;;5076914;28;20020;-56
2022/12/02 01:53:20;;;;;;;58.63;20.90;;;9.30;91.40;;;;;;5093596;28;20032;-56
2022/12/02 01:55:45;;;;;;;67.85;20.50;;;9.40;91.40;;;;;;5093969;28;20077;-56
2022/12/02 01:58:11;;;;;;;54.78;20.55;;;9.30;91.70;;;;;;5110620;28;20035;-56
2022/12/02 02:00:37;;;;;;;57.22;19.92;;;9.30;91.40;;;;;;5093907;28;20045;-56
2022/12/02 02:03:02;;;;;;;58.67;21.17;;;9.30;91.40;;;;;;5110668;28;20480;-56
2022/12/02 02:05:29;;;;;;;62.10;20.05;;;9.30;91.40;;;;;;5128965;28;20027;-56
2022/12/02 02:08:05;;;;;;;53.03;20.25;;;9.30;91.50;;;;;;5093935;28;20036;-56
2022/12/02 02:10:30;;;;;;;53.05;20.25;;;9.30;91.50;;;;;;5094295;28;20042;-56
2022/12/02 02:12:56;;;;;;;52.28;19.17;;;9.30;91.50;;;;;;5110427;28;20067;-56
2022/12/02 02:15:21;;;;;;;68.45;20.27;;;9.30;91.50;;;;;;5110097;28;20023;-56
2022/12/02 02:17:47;;;;;;;53.78;19.65;;;9.30;91.40;;;;;;5093427;28;20066;-56
2022/12/02 02:20:15;;;;;;;55.47;19.75;;;9.30;91.50;;;;;;5110404;28;20035;-56
2022/12/02 02:22:46;;;;;;;59.63;20.98;;;9.30;91.40;;;;;;5093424;28;20501;-56
2022/12/02 02:25:14;;;;;;;49.20;20.27;;;9.30;91.50;;;;;;5129326;28;20050;-56
2022/12/02 02:27:40;;;;;;;47.22;19.95;;;9.20;91.40;;;;;;5128911;28;20039;-56
2022/12/02 02:30:06;;;;;;;53.45;19.58;;;9.20;91.40;;;;;;5109909;28;20027;-56
2022/12/02 02:32:32;;;;;;;58.83;20.13;;;9.20;91.40;;;;;;5093298;28;20064;-56
2022/12/02 02:34:57;;;;;;;52.50;20.73;;;9.20;91.40;;;;;;5093588;28;20107;-56
2022/12/02 02:37:23;;;;;;;53.20;20.00;;;9.20;91.40;;;;;;5093229;28;20093;-56
2022/12/02 02:39:49;;;;;;;47.28;19.60;;;9.20;91.40;;;;;;5076084;28;20150;-56
2022/12/02 02:42:14;;;;;;;51.47;18.48;;;9.20;91.70;;;;;;5092424;28;20036;-56
2022/12/02 02:44:40;;;;;;;47.00;19.40;;;9.20;91.40;;;;;;5076219;28;20484;-56
2022/12/02 02:47:05;;;;;;;49.25;19.33;;;9.20;91.40;;;;;;5092853;28;20023;-56
2022/12/02 02:49:31;;;;;;;54.20;19.50;;;9.20;91.50;;;;;;5109610;28;20112;-56
2022/12/02 02:51:56;;;;;;;39.97;18.38;;;9.20;91.50;;;;;;5109728;28;20031;-56
2022/12/02 02:54:22;;;;;;;46.55;19.55;;;9.20;91.40;;;;;;5109684;28;20470;-56
2022/12/02 02:56:47;;;;;;;42.42;18.15;;;9.20;91.40;;;;;;5109453;28;20417;-56
2022/12/02 02:59:14;;;;;;;50.55;17.98;;;9.20;91.40;;;;;;5108476;28;20020;-56
2022/12/02 03:01:39;;;;;;;45.97;18.60;;;9.20;91.50;;;;;;5092198;28;20019;-56
2022/12/02 03:04:07;;;;;;;39.22;17.70;;;9.20;91.50;;;;;;5127564;28;20100;-56
2022/12/02 03:06:33;;;;;;;35.90;18.23;;;9.10;91.40;;;;;;5109652;28;20032;-56
2022/12/02 03:08:58;;;;;;;40.20;18.00;;;9.10;91.30;;;;;;5092764;28;20085;-56
2022/12/02 03:11:25;;;;;;;38.00;18.05;;;9.10;91.30;;;;;;5092424;28;20058;-56
2022/12/02 03:13:50;;;;;;;36.47;18.05;;;9.10;91.20;;;;;;5109447;28;20096;-56
2022/12/02 03:16:17;;;;;;;44.72;19.15;;;9.10;91.20;;;;;;5091893;28;20097;-56
2022/12/02 03:18:43;;;;;;;37.95;18.33;;;9.10;91.20;;;;;;5109053;28;20046;-56
2022/12/02 03:21:08;;;;;;;46.53;18.40;;;9.10;91.20;;;;;;5091863;28;20110;-56
2022/12/02 03:23:34;;;;;;;35.85;17.77;;;9.10;91.20;;;;;;5092071;28;20038;-56
2022/12/02 03:26:00;;;;;;;45.38;18.58;;;9.10;91.20;;;;;;5092136;28;20023;-56
2022/12/02 03:28:26;;;;;;;53.97;18.88;;;9.10;91.20;;;;;;5075220;28;20045;-55
2022/12/02 03:30:51;;;;;;;41.55;18.58;;;9.10;91.20;;;;;;5091919;28;20051;-56
2022/12/02 03:33:17;;;;;;;37.63;17.27;;;9.10;91.30;;;;;;5091718;28;20108;-56
2022/12/02 03:35:42;;;;;;;46.30;18.20;;;9.10;91.30;;;;;;5075030;28;20031;-56
2022/12/02 03:38:08;;;;;;;37.28;17.55;;;9.00;91.40;;;;;;5091884;28;20031;-56
2022/12/02 03:40:34;;;;;;;48.15;17.55;;;9.10;91.40;;;;;;5108667;28;20036;-56
2022/12/02 03:42:59;;;;;;;45.67;17.48;;;9.00;91.50;;;;;;5091639;28;20031;-56
2022/12/02 03:45:25;;;;;;;47.53;18.42;;;9.00;91.60;;;;;;5091713;28;20083;-56
2022/12/02 03:47:50;;;;;;;46.13;17.73;;;9.10;91.60;;;;;;5074793;28;20020;-56
2022/12/02 03:50:16;;;;;;;38.90;16.95;;;9.00;91.60;;;;;;5108526;28;20027;-56
2022/12/02 03:52:41;;;;;;;32.10;16.40;;;9.10;91.60;;;;;;5108177;28;20035;-56
2022/12/02 03:55:07;;;;;;;36.33;16.70;;;9.00;91.60;;;;;;5074704;28;20019;-56
2022/12/02 03:57:33;;;;;;;35.75;16.52;;;9.00;91.90;;;;;;5091622;28;20576;-56
2022/12/02 03:59:59;;;;;;;38.17;16.55;;;9.00;91.60;;;;;;5091198;28;20032;-56
2022/12/02 04:02:24;;;;;;;35.40;16.38;;;9.10;91.60;;;;;;5108551;28;20024;-57
2022/12/02 04:04:50;;;;;;;38.00;16.23;;;9.00;91.50;;;;;;5126787;28;20027;-56
2022/12/02 04:07:15;;;;;;;37.95;16.35;;;9.00;91.60;;;;;;5126517;28;20038;-56
2022/12/02 04:09:41;;;;;;;33.75;15.43;;;9.10;91.60;;;;;;5126430;28;20019;-56
2022/12/02 04:12:06;;;;;;;34.20;15.35;;;9.00;91.70;;;;;;5091224;28;20054;-56
2022/12/02 04:14:32;;;;;;;35.20;15.30;;;9.10;91.80;;;;;;5126508;28;20196;-56
2022/12/02 04:16:57;;;;;;;25.83;14.15;;;9.00;91.80;;;;;;5126708;28;20035;-56
2022/12/02 04:19:23;;;;;;;36.88;15.43;;;9.00;91.80;;;;;;5108072;28;20042;-56
2022/12/02 04:21:49;;;;;;;30.73;16.30;;;9.00;91.90;;;;;;5126709;28;20030;-56
2022/12/02 04:24:14;;;;;;;31.30;14.75;;;9.10;91.90;;;;;;5126534;28;20039;-56
2022/12/02 04:26:40;;;;;;;29.77;14.45;;;9.10;91.90;;;;;;5126131;28;20394;-56
2022/12/02 04:29:05;;;;;;;29.50;14.80;;;9.00;91.90;;;;;;5108013;28;20023;-56
2022/12/02 04:31:31;;;;;;;32.13;15.10;;;9.00;91.90;;;;;;5107712;28;20083;-56
2022/12/02 04:33:56;;;;;;;30.35;14.55;;;9.10;91.90;;;;;;5108186;28;20035;-56
2022/12/02 04:36:22;;;;;;;29.55;15.05;;;9.00;91.90;;;;;;5091174;28;20034;-56
2022/12/02 04:38:47;;;;;;;27.98;13.25;;;9.00;91.90;;;;;;5090680;28;20042;-56
2022/12/02 04:41:13;;;;;;;30.83;14.95;;;9.00;91.70;;;;;;5125910;28;20389;-56
2022/12/02 04:43:39;;;;;;;23.77;13.48;;;9.00;91.50;;;;;;5107326;28;20038;-56
2022/12/02 04:46:04;;;;;;;28.88;14.02;;;9.00;91.50;;;;;;5108049;28;20028;-56
2022/12/02 04:48:30;;;;;;;26.85;13.73;;;9.00;91.50;;;;;;5126266;28;20032;-56
2022/12/02 04:50:55;;;;;;;26.88;14.35;;;9.00;91.50;;;;;;5126049;28;20479;-56
2022/12/02 04:53:21;;;;;;;26.42;14.60;;;9.00;91.40;;;;;;5126403;28;20102;-56
2022/12/02 04:55:46;;;;;;;24.02;14.38;;;9.00;91.30;;;;;;5126856;28;20027;-56
2022/12/02 04:58:12;;;;;;;23.95;13.65;;;9.00;91.30;;;;;;5107840;28;20483;-56
2022/12/02 05:00:38;;;;;;;24.27;14.20;;;9.00;91.30;;;;;;5091303;28;20042;-56
2022/12/02 05:03:03;;;;;;;26.67;14.25;;;9.00;91.30;;;;;;5107439;28;20036;-56
2022/12/02 05:05:29;;;;;;;27.23;14.65;;;9.00;91.30;;;;;;5125454;28;20026;-57
2022/12/02 05:07:55;;;;;;;26.17;14.63;;;8.90;91.30;;;;;;5090534;28;20076;-56
2022/12/02 05:10:20;;;;;;;33.05;15.50;;;9.00;91.30;;;;;;5107290;28;20015;-56
2022/12/02 05:12:46;;;;;;;27.85;13.45;;;8.90;91.20;;;;;;5125563;28;20028;-56
2022/12/02 05:15:12;;;;;;;33.15;14.65;;;9.00;91.50;;;;;;5125710;28;20047;-56
2022/12/02 05:17:38;;;;;;;35.50;14.23;;;8.90;91.20;;;;;;5125578;28;20027;-55
2022/12/02 05:20:04;;;;;;;23.35;13.93;;;8.90;91.20;;;;;;5107174;28;20044;-56
2022/12/02 05:22:30;;;;;;;25.35;14.63;;;8.90;91.20;;;;;;5092512;28;20027;-56
2022/12/02 05:24:55;;;;;;;33.22;13.60;;;8.90;91.30;;;;;;5130356;28;20028;-56
2022/12/02 05:27:21;;;;;;;33.85;13.15;;;8.90;91.20;;;;;;5111500;28;20020;-56
2022/12/02 05:29:46;;;;;;;29.63;13.70;;;8.90;91.20;;;;;;5129508;28;20104;-56
2022/12/02 05:32:12;;;;;;;36.90;13.65;;;8.90;91.30;;;;;;5129469;28;20043;-56
2022/12/02 05:34:37;;;;;;;28.38;12.88;;;8.90;91.20;;;;;;5129623;28;20039;-56
2022/12/02 05:37:03;;;;;;;32.88;13.38;;;8.90;91.10;;;;;;5129533;28;20037;-56
2022/12/02 05:39:29;;;;;;;22.92;12.38;;;8.90;91.20;;;;;;5111107;28;20362;-56
2022/12/02 05:41:57;;;;;;;27.38;13.18;;;8.90;91.20;;;;;;5129405;28;20478;-56
2022/12/02 05:44:26;;;;;;;28.05;13.10;;;8.90;91.20;;;;;;5110856;28;20032;-56
2022/12/02 05:46:52;;;;;;;25.58;12.80;;;8.90;91.20;;;;;;5111029;28;20102;-56
2022/12/02 05:49:22;;;;;;;25.00;12.80;;;8.90;91.20;;;;;;5094190;28;20027;-56
2022/12/02 05:51:55;;;;;;;23.48;12.77;;;8.90;91.20;;;;;;5129475;28;20024;-56
2022/12/02 05:54:21;;;;;;;27.48;13.57;;;8.90;91.30;;;;;;5093607;28;20050;-56
2022/12/02 05:56:46;;;;;;;24.10;11.88;;;8.90;91.20;;;;;;5110594;28;20027;-56
2022/12/02 05:59:14;;;;;;;27.13;12.93;;;8.90;91.20;;;;;;5110733;28;20032;-56
2022/12/02 06:01:40;;;;;;;26.08;13.40;;;8.90;91.20;;;;;;5110683;28;20019;-56
2022/12/02 06:04:11;;;;;;;25.23;12.27;;;8.90;91.40;;;;;;5093679;28;20024;-56
2022/12/02 06:06:37;;;;;;;26.23;11.88;;;8.90;91.40;;;;;;5094315;28;20024;-56
2022/12/02 06:09:05;;;;;;;20.40;11.75;;;8.90;91.50;;;;;;5129045;28;20179;-56
2022/12/02 06:11:35;;;;;;;22.90;12.23;;;8.80;91.40;;;;;;5094137;28;20110;-56
2022/12/02 06:14:02;;;;;;;25.73;13.00;;;8.90;91.50;;;;;;5077106;28;20038;-56
2022/12/02 06:16:28;;;;;;;28.27;12.60;;;8.80;91.60;;;;;;5093651;28;20023;-56
2022/12/02 06:18:54;;;;;;;23.27;11.52;;;8.90;91.70;;;;;;5110252;28;20038;-56
2022/12/02 06:21:20;;;;;;;31.80;11.63;;;8.80;91.60;;;;;;5110320;28;20059;-56
2022/12/02 06:23:51;;;;;;;25.58;12.23;;;8.80;91.70;;;;;;5093715;28;20039;-56
2022/12/02 06:26:18;;;;;;;23.23;11.82;;;8.80;92.00;;;;;;5094160;28;20031;-56
2022/12/02 06:28:44;;;;;;;15.90;11.20;;;8.80;91.70;;;;;;5110689;28;20064;-56
2022/12/02 06:31:14;;;;;;;23.27;12.35;;;8.80;91.70;;;;;;5094145;28;20054;-56
2022/12/02 06:33:39;;;;;;;20.20;11.30;;;8.80;91.80;;;;;;5093663;28;20047;-56
2022/12/02 06:36:11;;;;;;;23.00;11.82;;;8.80;91.80;;;;;;5094747;28;20047;-56
2022/12/02 06:38:41;;;;;;;21.40;12.15;;;8.80;91.80;;;;;;5111938;28;20031;-55
2022/12/02 06:41:15;;;;;;;21.15;11.23;;;8.80;91.80;;;;;;5110033;28;20104;-56
2022/12/02 06:43:41;;;;;;;22.25;11.77;;;8.80;91.80;;;;;;5094103;28;20047;-56
2022/12/02 06:46:26;;;;;;;20.60;11.52;;;8.80;91.80;;;;;;5098651;28;20094;-56
2022/12/02 06:48:52;;;;;;;21.95;11.57;;;8.80;91.80;;;;;;5109382;28;20040;-56
2022/12/02 06:51:18;;;;;;;22.88;11.43;;;8.80;91.80;;;;;;5092591;28;20030;-56
2022/12/02 06:53:44;;;;;;;22.38;11.43;;;8.80;91.70;;;;;;5092456;28;20027;-56
2022/12/02 06:56:16;;;;;;;28.70;11.23;;;8.80;91.70;;;;;;5109359;28;20098;-56
2022/12/02 06:59:01;;;;;;;24.90;11.15;;;8.80;91.70;;;;;;5121469;28;20974;-56
2022/12/02 07:01:31;;;;;;;18.60;11.30;;;8.80;91.60;;;;;;5086125;28;20102;-56
2022/12/02 07:04:19;;;;;;;21.45;12.18;;;8.80;91.60;;;;;;5116216;28;20024;-56
2022/12/02 07:06:51;;;;;;;21.15;11.27;;;8.80;91.60;;;;;;5105287;28;20110;-56
2022/12/02 07:09:24;;;;;;;18.35;10.32;;;8.80;91.60;;;;;;5092041;28;20102;-56
2022/12/02 07:11:50;;;;;;;17.50;10.57;;;8.80;91.60;;;;;;5103795;28;20035;-56
2022/12/02 07:14:23;;;;;;;18.48;10.57;;;8.80;91.50;;;;;;5084631;28;20060;-56
2022/12/02 07:16:48;;;;;;;21.77;10.75;;;8.80;91.50;;;;;;5108735;28;20028;-56
2022/12/02 07:19:17;;;;;;;24.67;10.82;;;8.70;91.50;;;;;;5092085;28;20027;-56
2022/12/02 07:21:43;;;;;;;18.45;11.07;;;8.80;91.50;;;;;;5109450;28;20042;-57
2022/12/02 07:24:13;;;;;;;19.23;9.93;;;8.80;91.50;;;;;;5109064;28;20020;-56
2022/12/02 07:26:39;;;;;;;23.23;10.38;;;8.70;91.50;;;;;;5109021;28;20032;-56
2022/12/02 07:29:04;;;;;;;25.58;10.57;;;8.70;91.40;;;;;;5091619;28;20067;-56
2022/12/02 07:31:30;;;;;;;22.52;10.68;;;8.80;91.40;;;;;;5091219;28;20087;-56
2022/12/02 07:33:55;;;;;;;26.23;11.18;;;8.70;91.80;;;;;;5108462;28;20376;-56
2022/12/02 07:36:21;;;;;;;23.40;10.32;;;8.70;91.40;;;;;;5091504;28;20028;-56
2022/12/02 07:38:47;;;;;;;26.80;11.02;;;8.70;91.50;;;;;;5126560;28;20031;-56
2022/12/02 07:41:12;;;;;;;20.42;10.05;;;8.70;91.40;;;;;;5103232;28;20032;-55
2022/12/02 07:43:38;;;;;;;24.10;11.07;;;8.70;91.50;;;;;;5103577;28;20477;-56
2022/12/02 07:46:04;;;;;;;25.58;11.25;;;8.70;91.40;;;;;;5110930;28;20061;-56
2022/12/02 07:48:29;;;;;;;32.97;11.70;;;8.80;91.50;;;;;;5097824;28;20028;-56
2022/12/02 07:50:55;;;;;;;29.83;11.43;;;8.70;91.50;;;;;;5108214;28;20423;-56
2022/12/02 07:53:20;;;;;;;32.08;11.05;;;8.70;91.50;;;;;;5090547;28;20020;-56
2022/12/02 07:55:46;;;;;;;32.78;11.70;;;8.80;91.40;;;;;;5107859;28;20020;-57
2022/12/02 07:58:11;;;;;;;40.75;12.85;;;8.80;91.50;;;;;;5126481;28;20041;-56
2022/12/02 08:00:37;;;;;;;35.80;11.60;;;8.80;91.50;;;;;;5126555;28;20120;-57
2022/12/02 08:03:02;;;;;;;35.40;12.32;;;8.70;91.50;;;;;;5107960;28;20023;-56
2022/12/02 08:05:28;;;;;;;36.05;11.70;;;8.80;91.50;;;;;;5107912;28;20029;-56
2022/12/02 08:07:54;;;;;;;53.67;12.73;;;8.80;91.50;;;;;;5107801;28;20498;-56
2022/12/02 08:10:20;;;;;;;41.80;11.40;;;8.80;91.40;;;;;;5107634;28;20031;-56
2022/12/02 08:12:45;;;;;;;46.13;11.75;;;8.80;91.40;;;;;;5107474;28;20099;-56
2022/12/02 08:15:11;;;;;;;36.70;12.73;;;8.80;91.50;;;;;;5126101;28;20110;-56
2022/12/02 08:17:37;;;;;;;41.80;11.68;;;8.80;91.50;;;;;;5125821;28;20046;-56
2022/12/02 08:20:07;;;;;;;60.22;14.18;;;8.80;91.40;;;;;;5089767;28;20038;-56
2022/12/02 08:22:32;;;;;;;63.72;13.68;;;8.80;91.40;;;;;;5125805;28;20034;-56
2022/12/02 08:24:58;;;;;;;50.38;12.15;;;8.80;91.50;;;;;;5107444;28;20106;-56
2022/12/02 08:27:23;;;;;;;45.25;11.60;;;8.80;91.50;;;;;;5107183;28;20023;-56
2022/12/02 08:29:49;;;;;;;54.72;13.50;;;8.80;91.50;;;;;;5107387;28;20024;-56
2022/12/02 08:32:15;;;;;;;70.78;13.55;;;8.80;91.50;;;;;;5125449;28;20031;-56
2022/12/02 08:34:41;;;;;;;57.83;13.07;;;8.80;91.50;;;;;;5107640;28;20039;-56
2022/12/02 08:37:07;;;;;;;72.57;14.50;;;8.80;91.50;;;;;;5107276;28;20020;-56
2022/12/02 08:39:32;;;;;;;94.47;12.93;;;8.80;91.70;;;;;;5090325;28;20036;-56
2022/12/02 08:41:58;;;;;;;70.47;13.43;;;8.80;91.60;;;;;;5106677;28;20025;-56
2022/12/02 08:44:24;;;;;;;63.80;12.88;;;8.80;91.60;;;;;;5122877;28;20023;-56
2022/12/02 08:46:49;;;;;;;53.00;13.38;;;8.80;91.60;;;;;;5103904;28;20173;-56
2022/12/02 08:49:15;;;;;;;75.55;14.18;;;8.80;91.50;;;;;;5106999;28;20092;-56
2022/12/02 08:51:41;;;;;;;73.22;13.52;;;8.80;91.60;;;;;;5106700;28;20449;-56
2022/12/02 08:54:06;;;;;;;91.78;15.52;;;8.80;91.50;;;;;;5106602;28;20032;-56
2022/12/02 08:56:32;;;;;;;87.20;16.42;;;8.80;91.50;;;;;;5125200;28;20035;-56
2022/12/02 08:58:57;;;;;;;76.85;14.27;;;8.80;91.50;;;;;;5096581;28;20097;-56
2022/12/02 09:01:23;;;;;;;108.65;17.27;;;8.90;91.50;;;;;;5088619;28;20032;-56
2022/12/02 09:03:48;;;;;;;93.85;15.55;;;8.90;91.60;;;;;;5103173;28;20043;-56
2022/12/02 09:06:14;;;;;;;100.35;15.70;;;8.90;91.60;;;;;;5085014;28;20035;-56
2022/12/02 09:08:39;;;;;;;100.07;16.35;;;8.90;91.60;;;;;;5085260;28;20027;-56
2022/12/02 09:11:05;;;;;;;116.13;16.35;;;8.90;91.70;;;;;;5084796;28;20028;-56
2022/12/02 09:13:30;;;;;;;108.10;18.13;;;8.90;91.70;;;;;;5084599;28;20497;-54
2022/12/02 09:15:56;;;;;;;117.35;18.83;;;8.90;91.70;;;;;;5103782;28;20043;-54
2022/12/02 09:18:23;;;;;;;121.88;17.00;;;8.90;91.80;;;;;;5086073;28;20028;-54
2022/12/02 09:20:49;;;;;;;98.38;16.17;;;8.90;91.90;;;;;;5086326;28;20028;-54
2022/12/02 09:23:14;;;;;;;110.07;18.55;;;8.90;91.80;;;;;;5104551;28;20039;-54
2022/12/02 09:25:40;;;;;;;135.02;19.65;;;8.90;91.90;;;;;;5103923;28;20020;-54
2022/12/02 09:28:05;;;;;;;125.88;18.95;;;8.90;91.80;;;;;;5085468;28;20069;-54
2022/12/02 09:30:31;;;;;;;136.95;18.77;;;9.00;91.90;;;;;;5069444;28;20053;-54
2022/12/02 09:32:57;;;;;;;118.05;19.35;;;9.00;92.00;;;;;;5086763;28;20363;-54
2022/12/02 09:35:22;;;;;;;115.88;19.92;;;9.00;92.00;;;;;;5124640;28;20024;-54
2022/12/02 09:37:48;;;;;;;151.95;23.23;;;9.00;92.00;;;;;;5105465;28;20047;-54
2022/12/02 09:40:13;;;;;;;139.38;21.23;;;9.00;92.10;;;;;;5104143;28;20107;-54
2022/12/02 09:42:39;;;;;;;146.55;21.98;;;9.00;92.10;;;;;;5104006;28;20028;-54
2022/12/02 09:45:05;;;;;;;158.15;21.77;;;9.00;92.00;;;;;;5104286;28;20035;-54
2022/12/02 09:47:30;;;;;;;137.13;21.58;;;9.10;92.00;;;;;;5104222;28;20484;-54
2022/12/02 09:49:56;;;;;;;161.80;23.00;;;9.10;92.00;;;;;;5103975;28;20027;-54
2022/12/02 09:52:26;;;;;;;149.75;22.02;;;9.10;92.10;;;;;;5104647;28;20091;-54
2022/12/02 09:54:55;;;;;;;134.93;22.02;;;9.10;92.10;;;;;;5106827;28;20054;-54
2022/12/02 09:57:24;;;;;;;137.75;21.83;;;9.10;92.10;;;;;;5106120;28;20076;-54
2022/12/02 09:59:50;;;;;;;160.15;22.40;;;9.10;92.10;;;;;;5089234;28;20418;-54
2022/12/02 10:02:28;;;;;;;181.02;22.65;;;9.10;92.00;;;;;;5105954;28;20024;-54
2022/12/02 10:04:54;;;;;;;218.82;26.88;;;9.20;92.00;;;;;;5105601;28;20484;-54
2022/12/02 10:07:20;;;;;;;194.52;27.48;;;9.20;92.00;;;;;;5106444;28;20034;-54
2022/12/02 10:09:46;;;;;;;188.02;25.33;;;9.20;92.10;;;;;;5110084;28;20057;-54
2022/12/02 10:12:11;;;;;;;250.55;30.20;;;9.20;92.10;;;;;;5092563;28;20106;-54
2022/12/02 10:14:37;;;;;;;308.55;35.38;;;9.20;92.10;;;;;;5093035;28;20035;-54
2022/12/02 10:17:13;;;;;;;286.70;37.17;;;9.20;92.40;;;;;;5110083;28;20081;-54
2022/12/02 10:19:38;;;;;;;230.23;27.98;;;9.20;92.00;;;;;;5109782;28;20077;-54
2022/12/02 10:22:16;;;;;;;169.00;27.40;;;9.20;91.90;;;;;;5127931;28;20019;-54
2022/12/02 10:24:41;;;;;;;206.95;27.80;;;9.20;91.90;;;;;;5110368;28;20096;-54
2022/12/02 10:27:07;;;;;;;198.23;27.10;;;9.20;91.90;;;;;;5121950;28;20042;-54
2022/12/02 10:29:33;;;;;;;191.82;28.25;;;9.20;92.00;;;;;;5089175;28;20455;-54
2022/12/02 10:32:03;;;;;;;203.93;28.15;;;9.20;92.10;;;;;;5089422;28;20035;-54
2022/12/02 10:34:29;;;;;;;183.75;25.98;;;9.20;92.10;;;;;;5107176;28;20046;-54
2022/12/02 10:36:55;;;;;;;214.40;28.75;;;9.30;92.10;;;;;;5108711;28;20085;-54
2022/12/02 10:39:22;;;;;;;171.73;26.08;;;9.20;92.10;;;;;;5109404;28;20020;-54
2022/12/02 10:42:03;;;;;;;165.35;26.00;;;9.30;92.10;;;;;;5127621;28;20092;-54
2022/12/02 10:44:29;;;;;;;169.70;24.02;;;9.30;92.10;;;;;;5127916;28;20027;-54
2022/12/02 10:46:56;;;;;;;153.15;25.63;;;9.30;92.10;;;;;;5107495;28;20015;-54
2022/12/02 10:49:35;;;;;;;168.48;26.20;;;9.30;92.00;;;;;;5083540;28;20373;-54
2022/12/02 10:52:07;;;;;;;295.88;36.95;;;9.30;92.00;;;;;;5127365;28;20028;-54
2022/12/02 10:54:32;;;;;;;154.57;23.90;;;9.30;92.30;;;;;;5092535;28;20042;-54
2022/12/02 10:56:59;;;;;;;161.93;26.17;;;9.30;92.00;;;;;;5092358;28;20389;-54
2022/12/02 10:59:24;;;;;;;193.75;26.65;;;9.30;92.10;;;;;;5109323;28;20042;-54
2022/12/02 11:01:50;;;;;;;182.80;25.88;;;9.40;92.10;;;;;;5109148;28;20027;-54
2022/12/02 11:04:15;;;;;;;201.75;25.40;;;9.40;92.10;;;;;;5091961;28;20134;-54
2022/12/02 11:06:42;;;;;;;177.27;25.48;;;9.40;92.10;;;;;;5109012;28;20032;-54
2022/12/02 11:09:13;;;;;;;149.80;22.92;;;9.30;92.00;;;;;;5108683;28;20038;-54
2022/12/02 11:11:39;;;;;;;149.98;22.10;;;9.40;92.00;;;;;;5108795;28;20450;-54
2022/12/02 11:14:11;;;;;;;157.52;23.95;;;9.30;92.00;;;;;;5108498;28;20051;-54
2022/12/02 11:16:36;;;;;;;167.25;24.50;;;9.40;92.00;;;;;;5108980;28;20034;-54
2022/12/02 11:19:05;;;;;;;149.55;22.88;;;9.40;91.90;;;;;;5107418;28;20031;-54
2022/12/02 11:21:36;;;;;;;128.52;22.60;;;9.40;91.90;;;;;;5108156;28;20079;-54
2022/12/02 11:24:21;;;;;;;135.98;21.48;;;9.40;91.80;;;;;;5108307;28;20039;-55
2022/12/02 11:26:59;;;;;;;161.43;20.70;;;9.40;91.80;;;;;;5126655;28;20024;-54
2022/12/02 11:29:28;;;;;;;108.82;19.48;;;9.10;91.70;;;;;;5126959;28;20039;-55
2022/12/02 11:32:25;;;;;;;134.68;19.63;;;9.50;91.70;;;;;;5108544;28;20036;-54
2022/12/02 11:34:54;;;;;;;150.73;20.67;;;9.50;91.70;;;;;;5107138;28;20523;-54
2022/12/02 11:37:29;;;;;;;132.00;20.42;;;9.60;91.60;;;;;;5088185;28;20028;-54
2022/12/02 11:39:56;;;;;;;116.53;19.58;;;9.60;91.60;;;;;;5105965;28;20038;-53
2022/12/02 11:42:26;;;;;;;114.72;20.00;;;9.60;91.60;;;;;;5087418;28;20028;-54
2022/12/02 11:44:52;;;;;;;125.85;20.33;;;9.60;91.50;;;;;;5087607;28;20032;-54
2022/12/02 11:47:20;;;;;;;160.00;22.48;;;9.70;91.50;;;;;;5087493;28;20078;-54
2022/12/02 11:49:46;;;;;;;156.90;22.15;;;9.70;91.40;;;;;;5105835;28;20020;-56
2022/12/02 11:52:16;;;;;;;180.40;23.00;;;9.70;91.40;;;;;;5087389;28;20050;-57
2022/12/02 11:55:11;;;;;;;119.55;19.77;;;9.70;91.40;;;;;;5088180;28;20032;-56
2022/12/02 11:57:49;;;;;;;144.95;20.67;;;9.70;91.30;;;;;;5105348;28;20229;-57
2022/12/02 12:00:32;;;;;;;120.18;21.20;;;9.80;91.30;;;;;;5087318;28;20036;-55
2022/12/02 12:03:14;;;;;;;162.35;23.15;;;9.70;91.30;;;;;;5070393;28;20020;-55
2022/12/02 12:05:41;;;;;;;183.65;24.35;;;9.80;91.40;;;;;;5105962;28;20028;-54
2022/12/02 12:08:06;;;;;;;140.23;21.00;;;9.80;91.40;;;;;;5087709;28;20087;-55
2022/12/02 12:10:38;;;;;;;153.05;23.05;;;9.80;91.40;;;;;;5104254;28;20050;-54
2022/12/02 12:13:22;;;;;;;137.25;20.63;;;9.80;91.40;;;;;;5099277;28;20445;-55
2022/12/02 12:15:52;;;;;;;117.00;19.40;;;9.80;91.50;;;;;;5095473;28;20137;-55
2022/12/02 12:18:54;;;;;;;113.10;20.35;;;9.80;91.40;;;;;;5069116;28;20031;-55
2022/12/02 12:21:32;;;;;;;105.15;19.63;;;9.80;91.30;;;;;;5007684;28;20034;-54
2022/12/02 12:24:24;;;;;;;130.18;20.73;;;9.80;91.20;;;;;;5096720;28;20055;-57
2022/12/02 12:27:01;;;;;;;105.70;18.17;;;9.80;91.20;;;;;;5112875;28;20031;-54
2022/12/02 12:29:29;;;;;;;94.68;18.83;;;9.90;91.20;;;;;;5116209;28;20472;-54
2022/12/02 12:31:55;;;;;;;128.60;19.38;;;9.90;91.10;;;;;;5098189;28;20457;-55
2022/12/02 12:34:21;;;;;;;132.40;20.38;;;9.90;91.20;;;;;;5091473;28;20023;-54
2022/12/02 12:36:46;;;;;;;91.60;17.75;;;9.90;91.10;;;;;;5120606;28;20063;-54